Sugar Land Regional Airport Houston US
ICAO: KSGR
IATA: SGR
Category: Medium
Scheduled Services: No

Elevation: 82 ft
TransAlt. 18000 ft.

Airport Communications:
HOUSTON APP/DEP:123.8
ASOS:118.125
CTAF:118.65
GND/CLNC DEL:121.4
TWR:118.65
UNICOM:122.95

KSGR Zoom In..

If you have problems with the map follow the link
https://www.worldairports.se/pages/airport.php?
ICAO=KSGR

Runways:

(A) RW 17 length 8000 ft width 100 ft
---- / hdg 170

(B) RW 35 length 8000 ft width 100 ft
ILS 110.70 / hdg 350

Location; KSGR
Day. 24 / Time. 10.53 Zulu
* Altimeter: 30.09
* Temperature: 18° c. 64.4°f.
* Wind from: 110° Speed 04 kn.
Dewpoint: 16° c.
Visibility: 8 Statute Miles.
Clouds: Broken 2300 ft.
Clouds: Broken 2800 ft.
Clouds: Overcast 6500 ft.

KSGR 241053Z 11004KT 8SM BKN023 BKN028 OVC065 18/16 A3009 RMK AO2 SLP190 T01780161


Wind From 110°
Speed 04 kn.

 
 
jpsmedia.com for Web Design worldairports.se 2019   terms of use